Warning: Javascript must be enabled to use all the features on this page!


Page Loading - Please Wait...

Click to hideNews Bulletins

Peak Streamflow for the Nation

USGS 07074000 Strawberry River near Poughkeepsie, AR

Sharp County, Arkansas
Hydrologic Unit Code 11010012
Latitude  36°06'40", Longitude  91°26'58" NAD83
Drainage area 473  square miles
Gage datum 298.07 feet above NGVD29
Output formats
Table
Graph
Tab-separated file
peakfq (watstore) format
Reselect output format
Water
Year
Date Gage
Height
(feet)
Stream-
flow
(cfs)
1937 1936-10-25 18.30 14,600
1938 1938-02-18 23.60 31,600
1939 1939-04-16 19.50 17,600
1940 1940-04-19 12.43 5,230
1941 1941-01-24 10.90 3,850
1942 1942-04-08 21.25 22,700
1943 1943-05-11 24.60 32,900
1944 1944-04-11 17.40 12,200
1945 1945-06-11 22.62 26,500
1946 1946-03-06 20.25 19,200
1947 1946-12-10 16.94 10,100
1948 1948-06-18 17.79 12,100
1949 1949-01-24 29.30 52,000
1950 1950-01-04 21.41 22,800
1951 1951-02-20 19.56 17,400
1952 1951-11-25 19.64 17,400
1953 1953-03-18 18.07 12,900
1954 1954-05-02 13.83 6,200
1955 1955-05-20 17.77 12,100
1956 1956-02-18 17.15 10,800
1957 1957-04-04 24.36 32,700
1958 1958-05-05 20.44 19,800
1959 1958-11-18 19.30 16,500
1960 1960-05-20 16.84 9,980
1961 1961-05-07 22.24 25,200
1962 1962-04-11 16.40 10,500
1963 1963-05-27 14.77 8,180
1964 1964-03-09 24.22 31,900
1965 1965-09-22 19.06 16,100
1966 1966-01-02 22.73 26,800
1967 1967-06-30 17.14 11,800
1968 1968-03-20 19.83 18,100
1969 1968-12-27 22.28 25,500
1970 1970-04-25 13.71 7,490
1971 1971-01-14 10.59 4,900
1972 1971-12-10 17.03 11,700
1973 1973-04-23 22.77 27,100
1974 1973-11-25 21.04 21,700
1975 1975-03-28 22.54 26,300
1976 1975-12-06 10.56 4,880
1977 1977-03-28 24.27 32,300
1978 1978-04-10 10.39 4,640
1979 1979-02-23 20.76 20,900
1980 1979-12-24 8.93 3,490
1981 1981-05-31 9.96 4,280
1982 1982-01-31 18.61 14,900
1983 1982-12-03 35.90 158,000
1984 1984-05-07 15.69 9,660
1985 1984-11-27 22.40 25,900
1986 1985-11-27 14.98 11,800
1987 1987-02-28 13.54 9,640
1988 1987-12-25 14.06 10,400
1989 1989-02-15 19.28 20,600
1990 1990-05-03 14.11 11,200
1991 1991-04-14 18.76 19,400
1992 1991-11-19 19.35 19,500
1993 1993-01-04 19.22 19,300
1994 1994-04-13 11.22 7,550
1995 1994-11-05 13.01 9,870
1996 1996-09-27 7.60 3,690
1997 1997-04-04 20.41 22,100
1998 1998-03-08 13.14 9,780
1999 1998-10-06 14.08 11,100
2000 2000-05-27 21.60 24,200
2001 2001-02-15 16.04 14,100
2002 2001-12-17 20.44 20,600
2003 2003-09-02 21.95 25,200
2004 2003-11-19 18.02 14,600
2005 2005-01-04 11.82 6,830
2006 2006-09-23 15.53 10,300
2007 2007-01-15 19.22 19,500
2008 2008-03-19 26.10 37,800
2009 2009-02-11 16.23 14,000
2010 2009-10-30 22.91 28,100
2011 2011-04-26 24.25 31,900
2012 2011-11-22 15.66 13,600
2013 2013-01-13 18.27 17,900
2014 2014-04-28 21.68 23,300
2015 2015-03-13 18.75 17,300
2016 2015-12-28 23.07 34,300
2017 2017-04-30 20.49 23,300
2018 2018-02-24 17.95 16,300
2019 2019-02-11 20.63 23,800
2020 2020-01-11 16.76 15,100
2021 2021-04-29 16.23  
2022 2022-04-21 16.20